createdAt,value
2023-04-29T00:08:59.306Z,0
2023-04-29T00:24:22.591Z,0
2023-04-29T00:39:45.907Z,0
2023-04-29T00:55:09.199Z,0
2023-04-29T01:10:31.507Z,0
2023-04-29T01:25:54.810Z,0
2023-04-29T01:41:18.100Z,0
2023-04-29T01:56:41.399Z,0
2023-04-29T02:12:04.704Z,0
2023-04-29T02:27:27.997Z,0
2023-04-29T02:42:51.298Z,0
2023-04-29T02:58:14.595Z,0
2023-04-29T03:13:37.882Z,0
2023-04-29T03:29:01.149Z,1
2023-04-29T03:44:24.403Z,26
2023-04-29T03:59:47.660Z,75
2023-04-29T04:15:10.895Z,96
2023-04-29T04:30:33.166Z,189
2023-04-29T04:45:56.434Z,163
2023-04-29T05:01:19.674Z,325
2023-04-29T05:16:42.929Z,358
2023-04-29T05:32:06.197Z,282
2023-04-29T05:47:29.441Z,882
2023-04-29T06:02:52.703Z,1035
2023-04-29T06:18:15.959Z,947
2023-04-29T06:33:39.205Z,914
2023-04-29T06:49:02.452Z,361
2023-04-29T07:04:25.711Z,300
2023-04-29T07:19:48.963Z,1503
2023-04-29T07:35:12.228Z,1160
2023-04-29T07:50:34.502Z,652
2023-04-29T08:05:57.749Z,1165
2023-04-29T08:21:20.990Z,1798
2023-04-29T08:36:44.260Z,1879
2023-04-29T08:52:07.497Z,1382
2023-04-29T09:07:30.768Z,3870
2023-04-29T09:08:54.183Z,3782
2023-04-29T09:10:17.581Z,3446
2023-04-29T09:11:40.989Z,3578
2023-04-29T09:13:04.406Z,3043
2023-04-29T09:14:27.803Z,1927
2023-04-29T09:15:51.223Z,1496
2023-04-29T09:17:14.635Z,1554
2023-04-29T09:18:37.052Z,1374
2023-04-29T09:20:00.462Z,1202
2023-04-29T09:21:23.865Z,958
2023-04-29T09:22:47.277Z,819
2023-04-29T09:24:10.671Z,693
2023-04-29T09:25:34.093Z,846
2023-04-29T09:26:57.490Z,839
2023-04-29T09:28:20.903Z,873
2023-04-29T09:29:44.314Z,939
2023-04-29T09:31:07.715Z,3072
2023-04-29T09:32:31.136Z,1153
2023-04-29T09:33:54.551Z,1239
2023-04-29T09:35:17.946Z,1383
2023-04-29T09:36:40.366Z,1594
2023-04-29T09:38:03.769Z,1655
2023-04-29T09:39:27.182Z,1848
2023-04-29T09:40:50.594Z,1959
2023-04-29T09:42:14.003Z,3072
2023-04-29T09:43:37.410Z,2113
2023-04-29T09:45:00.818Z,2222
2023-04-29T09:46:24.234Z,1775
2023-04-29T09:49:11.033Z,1090
2023-04-29T09:50:34.446Z,1119
2023-04-29T09:51:57.851Z,1658
2023-04-29T09:53:21.273Z,2069
2023-04-29T09:54:43.688Z,2242
2023-04-29T09:56:07.091Z,2178
2023-04-29T09:57:30.500Z,2065
2023-04-29T09:58:53.913Z,1953
2023-04-29T10:00:17.309Z,1664
2023-04-29T10:01:40.718Z,2037
2023-04-29T10:03:04.141Z,1764
2023-04-29T10:04:27.550Z,1803
2023-04-29T10:05:50.945Z,2712
2023-04-29T10:07:14.348Z,4220
2023-04-29T10:08:37.759Z,5772
2023-04-29T10:10:01.172Z,6792
2023-04-29T10:11:24.582Z,5764
2023-04-29T10:12:46.992Z,3497
2023-04-29T10:14:10.415Z,2146
2023-04-29T10:15:33.807Z,1443
2023-04-29T10:16:57.235Z,1171
2023-04-29T10:18:20.638Z,1037
2023-04-29T10:19:44.048Z,904
2023-04-29T10:21:07.476Z,895
2023-04-29T10:22:30.880Z,1045
2023-04-29T10:23:54.278Z,1187
2023-04-29T10:25:17.688Z,3072
2023-04-29T10:26:41.110Z,1075
2023-04-29T10:28:04.500Z,1122
2023-04-29T10:29:27.914Z,946
2023-04-29T10:30:50.339Z,1263
2023-04-29T10:32:13.740Z,1433
2023-04-29T10:33:37.161Z,1459
2023-04-29T10:35:00.564Z,1655
2023-04-29T10:36:23.972Z,1029
2023-04-29T10:37:47.373Z,908
2023-04-29T10:39:10.794Z,949
2023-04-29T10:40:34.193Z,913
2023-04-29T10:41:57.606Z,906
2023-04-29T10:43:21.004Z,914
2023-04-29T10:44:44.425Z,1128
2023-04-29T10:46:07.831Z,1677
2023-04-29T10:47:31.246Z,2399
2023-04-29T10:48:53.672Z,2793
2023-04-29T10:50:17.076Z,3451
2023-04-29T10:51:40.478Z,4205
2023-04-29T10:53:03.880Z,3751
2023-04-29T10:54:27.288Z,3191
2023-04-29T10:55:50.700Z,1964
2023-04-29T10:57:14.113Z,1277
2023-04-29T10:58:37.513Z,845
2023-04-29T11:00:00.921Z,674
2023-04-29T11:01:24.347Z,647
2023-04-29T11:02:47.736Z,750
2023-04-29T11:04:11.146Z,1307
2023-04-29T11:05:34.559Z,1067
2023-04-29T11:06:56.986Z,938
2023-04-29T11:08:20.402Z,928
2023-04-29T11:09:43.814Z,900
2023-04-29T11:11:07.211Z,850
2023-04-29T11:12:30.621Z,732
2023-04-29T11:13:54.015Z,698
2023-04-29T11:15:17.424Z,3072
2023-04-29T11:16:40.834Z,724
2023-04-29T11:18:04.245Z,813
2023-04-29T11:19:27.668Z,857
2023-04-29T11:20:51.077Z,1003
2023-04-29T11:22:14.494Z,1213
2023-04-29T11:23:37.887Z,1056
2023-04-29T11:25:00.313Z,930
2023-04-29T11:26:23.734Z,1092
2023-04-29T11:27:47.129Z,1410
2023-04-29T11:29:10.555Z,1536
2023-04-29T11:30:33.961Z,1502
2023-04-29T11:33:20.771Z,1957
2023-04-29T11:34:44.175Z,1544
2023-04-29T11:36:07.576Z,1679
2023-04-29T11:37:31.000Z,1833
2023-04-29T11:38:54.405Z,2437
2023-04-29T11:40:17.812Z,3514
2023-04-29T11:41:41.229Z,2930
2023-04-29T11:43:03.637Z,3081
2023-04-29T11:44:27.050Z,2411
2023-04-29T11:45:50.455Z,1810
2023-04-29T11:47:13.864Z,1337
2023-04-29T11:48:37.280Z,1218
2023-04-29T11:50:00.689Z,1211
2023-04-29T11:51:24.096Z,1170
2023-04-29T11:52:47.511Z,3072
2023-04-29T11:54:10.919Z,1103
2023-04-29T11:55:34.334Z,1352
2023-04-29T11:56:57.734Z,1142
2023-04-29T11:58:21.139Z,1248
2023-04-29T11:59:44.569Z,1271
2023-04-29T12:01:06.982Z,1314
2023-04-29T12:02:30.402Z,1567
2023-04-29T12:03:53.800Z,1322
2023-04-29T12:05:17.203Z,1289
2023-04-29T12:06:40.612Z,1147
2023-04-29T12:08:04.031Z,1570
2023-04-29T12:09:27.424Z,1504
2023-04-29T12:10:50.845Z,1558
2023-04-29T12:12:14.255Z,1626
2023-04-29T12:13:37.661Z,1454
2023-04-29T12:15:01.073Z,3072
2023-04-29T12:16:24.470Z,2169
2023-04-29T12:17:47.886Z,1912
2023-04-29T12:19:10.302Z,1815
2023-04-29T12:20:33.723Z,1602
2023-04-29T12:21:57.130Z,1860
2023-04-29T12:23:20.530Z,2314
2023-04-29T12:24:43.946Z,2352
2023-04-29T12:26:07.346Z,2320
2023-04-29T12:27:29.770Z,2348
2023-04-29T12:28:53.177Z,2333
2023-04-29T12:30:16.596Z,2693
2023-04-29T12:31:39.991Z,2791
2023-04-29T12:33:03.399Z,2531
2023-04-29T12:34:26.808Z,3072
2023-04-29T12:35:50.211Z,2433
2023-04-29T12:37:13.634Z,2853
2023-04-29T12:38:37.026Z,2807
2023-04-29T12:40:00.440Z,3072
2023-04-29T12:41:23.860Z,2517
2023-04-29T12:42:47.260Z,2258
2023-04-29T12:44:10.663Z,2281
2023-04-29T12:45:33.083Z,2566
2023-04-29T12:46:56.497Z,2830
2023-04-29T12:48:19.917Z,3073
2023-04-29T12:49:43.320Z,3592
2023-04-29T12:51:06.719Z,3633
2023-04-29T12:52:30.136Z,2779
2023-04-29T12:53:53.541Z,3033
2023-04-29T12:55:16.949Z,3000
2023-04-29T12:56:40.359Z,3442
2023-04-29T12:58:03.775Z,3472
2023-04-29T12:59:27.166Z,3360
2023-04-29T13:00:50.586Z,3380
2023-04-29T13:02:13.985Z,3258
2023-04-29T13:03:36.415Z,2750
2023-04-29T13:04:59.827Z,2539
2023-04-29T13:06:23.218Z,2140
2023-04-29T13:07:46.629Z,2075
2023-04-29T13:09:10.047Z,1785
2023-04-29T13:10:33.453Z,1520
2023-04-29T13:11:56.857Z,2070
2023-04-29T13:13:20.257Z,1999
2023-04-29T13:14:43.672Z,2199
2023-04-29T13:16:07.075Z,2588
2023-04-29T13:17:30.482Z,2985
2023-04-29T13:18:53.899Z,3693
2023-04-29T13:20:17.314Z,4999
2023-04-29T13:21:39.727Z,7610
2023-04-29T13:23:03.136Z,10601
2023-04-29T13:24:26.543Z,11390
2023-04-29T13:25:49.957Z,3072
2023-04-29T13:27:13.359Z,8020
2023-04-29T13:28:36.765Z,7381
2023-04-29T13:30:00.179Z,6938
2023-04-29T13:31:23.577Z,6083
2023-04-29T13:32:46.985Z,12514
2023-04-29T13:34:10.405Z,11946
2023-04-29T13:35:33.805Z,13515
2023-04-29T13:36:57.220Z,4209
2023-04-29T13:38:20.636Z,2346
2023-04-29T13:39:43.053Z,1500
2023-04-29T13:41:06.455Z,1045
2023-04-29T13:42:29.000Z,806
2023-04-29T13:43:53.275Z,897
2023-04-29T13:45:16.693Z,673
2023-04-29T13:46:40.101Z,676
2023-04-29T13:48:03.510Z,3072
2023-04-29T13:49:26.900Z,577
2023-04-29T13:50:50.319Z,559
2023-04-29T13:52:13.727Z,575
2023-04-29T13:53:37.127Z,681
2023-04-29T13:55:00.548Z,728
2023-04-29T13:56:23.959Z,778
2023-04-29T13:57:46.000Z,802
2023-04-29T13:59:09.782Z,803
2023-04-29T14:00:33.180Z,835
2023-04-29T14:01:56.589Z,878
2023-04-29T14:03:19.995Z,942
2023-04-29T14:04:43.406Z,1008
2023-04-29T14:06:06.824Z,1079
2023-04-29T14:07:30.220Z,1148
2023-04-29T14:08:53.641Z,1199
2023-04-29T14:10:17.050Z,1249
2023-04-29T14:11:40.450Z,1290
2023-04-29T14:13:03.859Z,1327
2023-04-29T14:14:27.275Z,1363
2023-04-29T14:15:49.701Z,1421
2023-04-29T14:17:13.099Z,1497
2023-04-29T14:18:36.507Z,1570
2023-04-29T14:19:59.920Z,1625
2023-04-29T14:21:23.317Z,1699
2023-04-29T14:22:46.724Z,1713
2023-04-29T14:24:10.141Z,1690
2023-04-29T14:25:33.546Z,1701
2023-04-29T14:28:20.358Z,1682
2023-04-29T14:29:43.767Z,1627
2023-04-29T14:31:07.192Z,1603
2023-04-29T14:32:30.591Z,1580
2023-04-29T14:33:53.023Z,1588
2023-04-29T14:35:16.428Z,1648
2023-04-29T14:36:39.828Z,1705
2023-04-29T14:38:03.229Z,1475
2023-04-29T14:39:26.645Z,3072
2023-04-29T14:40:50.045Z,1372
2023-04-29T14:42:13.453Z,1407
2023-04-29T14:43:36.870Z,1651
2023-04-29T14:45:00.274Z,1992
2023-04-29T14:46:23.698Z,2162
2023-04-29T14:47:47.107Z,2217
2023-04-29T14:49:10.523Z,2314
2023-04-29T14:50:33.923Z,2355
2023-04-29T14:51:56.342Z,2347
2023-04-29T14:53:19.761Z,2513
2023-04-29T14:54:43.167Z,2474
2023-04-29T14:56:06.588Z,2573
2023-04-29T14:57:29.986Z,2391
2023-04-29T14:58:53.408Z,1979
2023-04-29T15:00:16.816Z,1766
2023-04-29T15:01:40.214Z,1593
2023-04-29T15:03:03.618Z,1314
2023-04-29T15:04:27.044Z,1063
2023-04-29T15:05:50.440Z,1123
2023-04-29T15:07:13.847Z,1069
2023-04-29T15:08:37.266Z,1355
2023-04-29T15:09:59.686Z,1620
2023-04-29T15:11:23.099Z,1605
2023-04-29T15:12:46.499Z,1332
2023-04-29T15:14:09.908Z,993
2023-04-29T15:15:33.319Z,977
2023-04-29T15:16:56.727Z,932
2023-04-29T15:18:20.126Z,3072
2023-04-29T15:19:43.537Z,749
2023-04-29T15:21:06.949Z,771
2023-04-29T15:22:30.356Z,806
2023-04-29T15:23:53.756Z,778
2023-04-29T15:25:17.174Z,704
2023-04-29T15:26:40.568Z,635
2023-04-29T15:28:02.998Z,559
2023-04-29T15:29:26.419Z,500
2023-04-29T15:30:49.820Z,425
2023-04-29T15:32:13.226Z,374
2023-04-29T15:33:36.652Z,350
2023-04-29T15:35:00.055Z,313
2023-04-29T15:36:23.450Z,289
2023-04-29T15:37:46.869Z,277
2023-04-29T15:39:10.274Z,255
2023-04-29T15:40:33.670Z,251
2023-04-29T15:41:57.094Z,271
2023-04-29T15:43:20.484Z,339
2023-04-29T15:44:43.910Z,361
2023-04-29T15:46:06.337Z,352
2023-04-29T15:47:29.732Z,318
2023-04-29T15:48:53.152Z,272
2023-04-29T15:50:16.537Z,234
2023-04-29T15:51:39.955Z,273
2023-04-29T15:53:03.379Z,364
2023-04-29T15:54:26.776Z,408
2023-04-29T15:55:50.196Z,446
2023-04-29T15:57:13.587Z,475
2023-04-29T15:58:37.006Z,535
2023-04-29T16:00:00.411Z,584
2023-04-29T16:01:23.823Z,622
2023-04-29T16:02:47.211Z,646
2023-04-29T16:04:09.640Z,724
2023-04-29T16:05:33.059Z,806
2023-04-29T16:06:56.454Z,889
2023-04-29T16:08:19.864Z,956
2023-04-29T16:09:43.288Z,3072
2023-04-29T16:11:06.685Z,1043
2023-04-29T16:12:30.091Z,1112
2023-04-29T16:13:53.501Z,1195
2023-04-29T16:15:16.914Z,1191
2023-04-29T16:16:40.328Z,1141
2023-04-29T16:18:03.733Z,1092
2023-04-29T16:19:27.135Z,1053
2023-04-29T16:20:50.555Z,1010
2023-04-29T16:22:12.985Z,977
2023-04-29T16:23:36.378Z,971
2023-04-29T16:24:59.788Z,1046
2023-04-29T16:26:23.205Z,1151
2023-04-29T16:27:46.605Z,1257
2023-04-29T16:29:10.021Z,3072
2023-04-29T16:30:33.422Z,1304
2023-04-29T16:31:56.841Z,1297
2023-04-29T16:33:20.244Z,1240
2023-04-29T16:34:43.639Z,3072
2023-04-29T16:36:07.058Z,1103
2023-04-29T16:37:30.463Z,1023
2023-04-29T16:38:53.882Z,981
2023-04-29T16:40:16.305Z,3072
2023-04-29T16:41:39.698Z,892
2023-04-29T16:43:03.105Z,836
2023-04-29T16:44:26.531Z,765
2023-04-29T16:45:49.928Z,730
2023-04-29T16:47:13.331Z,694
2023-04-29T16:48:36.751Z,3072
2023-04-29T16:50:00.164Z,682
2023-04-29T16:51:23.567Z,728
2023-04-29T16:52:46.967Z,765
2023-04-29T16:54:10.376Z,793
2023-04-29T16:55:33.776Z,791
2023-04-29T16:56:57.186Z,803
2023-04-29T16:58:19.615Z,839
2023-04-29T16:59:43.022Z,814
2023-04-29T17:01:06.431Z,733
2023-04-29T17:02:29.836Z,608
2023-04-29T17:03:53.252Z,553
2023-04-29T17:05:16.647Z,543
2023-04-29T17:06:39.084Z,559
2023-04-29T17:08:02.484Z,544
2023-04-29T17:09:25.908Z,499
2023-04-29T17:10:49.316Z,488
2023-04-29T17:12:12.708Z,478
2023-04-29T17:13:36.125Z,461
2023-04-29T17:14:59.520Z,432
2023-04-29T17:16:22.942Z,406
2023-04-29T17:17:46.354Z,375
2023-04-29T17:19:09.757Z,343
2023-04-29T17:20:33.162Z,320
2023-04-29T17:21:56.565Z,292
2023-04-29T17:23:19.975Z,267
2023-04-29T17:24:42.408Z,258
2023-04-29T17:26:05.804Z,239
2023-04-29T17:27:29.212Z,218
2023-04-29T17:28:52.635Z,202
2023-04-29T17:30:16.035Z,194
2023-04-29T17:31:39.450Z,180
2023-04-29T17:33:02.841Z,173
2023-04-29T17:34:26.263Z,3072
2023-04-29T17:35:49.670Z,153
2023-04-29T17:37:13.076Z,143
2023-04-29T17:38:36.478Z,132
2023-04-29T17:39:59.888Z,119
2023-04-29T17:41:23.284Z,118
2023-04-29T17:42:45.706Z,119
2023-04-29T17:44:09.118Z,110
2023-04-29T17:45:32.527Z,95
2023-04-29T17:46:55.933Z,101
2023-04-29T17:48:19.352Z,95
2023-04-29T17:49:42.764Z,87
2023-04-29T17:51:06.164Z,86
2023-04-29T17:52:29.576Z,82
2023-04-29T17:53:52.974Z,93
2023-04-29T17:55:16.379Z,95
2023-04-29T17:56:39.789Z,100
2023-04-29T17:58:03.195Z,111
2023-04-29T17:59:26.608Z,110
2023-04-29T18:00:49.039Z,112
2023-04-29T18:02:12.454Z,106
2023-04-29T18:03:35.862Z,102
2023-04-29T18:04:59.251Z,96
2023-04-29T18:06:22.655Z,94
2023-04-29T18:07:46.063Z,84
2023-04-29T18:09:09.482Z,72
2023-04-29T18:10:32.883Z,74
2023-04-29T18:11:56.281Z,75
2023-04-29T18:13:19.698Z,69
2023-04-29T18:14:43.106Z,67
2023-04-29T18:16:06.497Z,62
2023-04-29T18:17:29.912Z,59
2023-04-29T18:18:52.345Z,53
2023-04-29T18:20:15.751Z,53
2023-04-29T18:21:39.153Z,41
2023-04-29T18:23:02.567Z,39
2023-04-29T18:24:25.969Z,30
2023-04-29T18:25:49.384Z,31
2023-04-29T18:27:12.786Z,25
2023-04-29T18:28:36.191Z,21
2023-04-29T18:29:59.604Z,17
2023-04-29T18:31:22.995Z,19
2023-04-29T18:32:46.410Z,18
2023-04-29T18:34:09.816Z,14
2023-04-29T18:35:33.222Z,14
2023-04-29T18:36:55.650Z,7
2023-04-29T18:38:19.043Z,11
2023-04-29T18:39:42.470Z,4
2023-04-29T18:41:05.872Z,2
2023-04-29T18:42:29.271Z,7
2023-04-29T18:43:52.684Z,5
2023-04-29T18:45:16.087Z,6
2023-04-29T18:46:39.480Z,1
2023-04-29T18:48:02.937Z,0
2023-04-29T18:49:26.381Z,0
2023-04-29T18:50:49.803Z,1
2023-04-29T18:52:13.203Z,2
2023-04-29T18:53:36.000Z,0
2023-04-29T18:54:59.067Z,1
2023-04-29T18:56:22.473Z,1
2023-04-29T18:57:45.885Z,1
2023-04-29T18:59:09.328Z,0
2023-04-29T19:00:32.784Z,0
2023-04-29T19:01:56.221Z,0
2023-04-29T19:03:19.685Z,0
2023-04-29T19:04:43.124Z,0
2023-04-29T19:06:06.584Z,0
2023-04-29T19:07:30.031Z,0
2023-04-29T19:08:53.478Z,0
2023-04-29T19:10:16.920Z,0
2023-04-29T19:11:40.390Z,0
2023-04-29T19:13:02.845Z,0
2023-04-29T19:14:26.301Z,0
2023-04-29T19:15:49.742Z,0
2023-04-29T19:17:13.204Z,0
2023-04-29T19:18:36.646Z,0
2023-04-29T19:20:00.088Z,0
2023-04-29T19:21:23.551Z,0
2023-04-29T19:22:47.002Z,0
2023-04-29T19:24:10.448Z,0
2023-04-29T19:25:33.901Z,0
2023-04-29T19:26:57.345Z,0
2023-04-29T19:28:20.796Z,0
2023-04-29T19:29:44.247Z,0
2023-04-29T19:31:06.705Z,0
2023-04-29T19:32:30.144Z,0
2023-04-29T19:33:53.589Z,0
2023-04-29T19:35:17.050Z,0
2023-04-29T19:36:40.486Z,0
2023-04-29T19:38:03.955Z,0
2023-04-29T19:39:27.403Z,0
2023-04-29T19:40:50.842Z,0
2023-04-29T19:42:14.300Z,0
2023-04-29T19:43:37.748Z,0
2023-04-29T19:45:01.195Z,0
2023-04-29T19:46:24.645Z,0
2023-04-29T19:47:48.098Z,0
2023-04-29T19:49:10.552Z,0
2023-04-29T19:50:34.017Z,0
2023-04-29T19:51:57.463Z,0
2023-04-29T19:53:20.916Z,0
2023-04-29T19:54:44.359Z,0
2023-04-29T19:56:07.821Z,0
2023-04-29T19:57:31.263Z,0
2023-04-29T19:58:54.710Z,0
2023-04-29T20:00:18.149Z,0
2023-04-29T20:01:41.606Z,0
2023-04-29T20:03:05.059Z,0
2023-04-29T20:04:28.502Z,0
2023-04-29T20:05:51.941Z,0
2023-04-29T20:07:14.414Z,0
2023-04-29T20:08:37.865Z,0
2023-04-29T20:10:01.317Z,0
2023-04-29T20:11:24.762Z,0
2023-04-29T20:12:48.217Z,0
2023-04-29T20:14:11.666Z,0
2023-04-29T20:15:35.119Z,0
2023-04-29T20:16:58.557Z,0
2023-04-29T20:18:22.017Z,0
2023-04-29T20:19:45.471Z,0
2023-04-29T20:21:08.915Z,0
2023-04-29T20:22:32.366Z,0
2023-04-29T20:23:55.810Z,0
2023-04-29T20:25:18.276Z,0
2023-04-29T20:26:41.725Z,0
2023-04-29T20:28:05.181Z,0
2023-04-29T20:29:28.625Z,0
2023-04-29T20:30:52.070Z,0
2023-04-29T20:32:15.524Z,0
2023-04-29T20:33:38.963Z,0
2023-04-29T20:35:02.426Z,0
2023-04-29T20:36:25.868Z,0
2023-04-29T20:37:49.327Z,0
2023-04-29T20:40:36.229Z,0
2023-04-29T20:41:59.676Z,0
2023-04-29T20:43:22.137Z,0
2023-04-29T20:44:45.590Z,0
2023-04-29T20:46:09.052Z,0
2023-04-29T20:47:32.481Z,0
2023-04-29T20:48:55.941Z,0
2023-04-29T20:50:19.391Z,0
2023-04-29T20:51:42.847Z,0
2023-04-29T20:53:06.283Z,0
2023-04-29T20:54:29.733Z,0
2023-04-29T20:55:53.201Z,0
2023-04-29T20:57:16.648Z,0
2023-04-29T21:12:39.935Z,0
2023-04-29T21:28:03.236Z,0
2023-04-29T21:43:25.540Z,0
2023-04-29T21:58:48.838Z,0
2023-04-29T22:14:12.127Z,0
2023-04-29T22:29:35.428Z,0
2023-04-29T22:44:58.729Z,0
2023-04-29T23:00:22.025Z,0
2023-04-29T23:15:45.327Z,0
2023-04-29T23:31:08.621Z,0
2023-04-29T23:46:31.933Z,0
